Time;durP1;ratioP1;P1;durP2;ratioP2;P2;SDS_P1;SDS_P2;PMS_P1;PMS_P2;Temp;Humidity;BMP_temperature;BMP_pressure;BME280_temperature;BME280_humidity;BME280_pressure;Samples;Min_cycle;Max_cycle;Signal;HPM_P1;HPM_P2
2021/05/18 00:02:03;;;;;;;7.40;2.30;;;;;;;;;;6810715;29;20063;-83
2021/05/18 00:05:25;;;;;;;14.27;2.33;;;;;;;;;;6810248;29;20032;-83
2021/05/18 00:12:25;;;;;;;9.43;2.42;;;;;;;;;;6815611;29;20036;-83
2021/05/18 00:15:46;;;;;;;13.18;2.47;;;;;;;;;;6815600;29;20058;-84
2021/05/18 00:19:07;;;;;;;8.70;2.13;;;;;;;;;;6815679;29;20043;-84
2021/05/18 00:22:28;;;;;;;6.30;2.28;;;;;;;;;;6815258;29;20094;-83
2021/05/18 00:25:48;;;;;;;8.70;2.33;;;;;;;;;;6815538;29;20122;-83
2021/05/18 00:29:09;;;;;;;11.48;2.28;;;;;;;;;;6878036;23;20035;-75
2021/05/18 00:32:29;;;;;;;9.05;1.80;;;;;;;;;;6826445;29;20050;-75
2021/05/18 00:35:50;;;;;;;4.72;1.67;;;;;;;;;;6815756;29;20028;-75
2021/05/18 00:39:11;;;;;;;2.17;1.33;;;;;;;;;;6812769;29;20031;-75
2021/05/18 00:42:31;;;;;;;10.63;1.98;;;;;;;;;;6823333;29;20059;-74
2021/05/18 00:45:52;;;;;;;10.27;2.50;;;;;;;;;;6811151;29;20466;-75
2021/05/18 00:49:13;;;;;;;12.13;2.38;;;;;;;;;;6801544;29;20058;-75
2021/05/18 00:52:33;;;;;;;7.68;1.98;;;;;;;;;;6824794;29;20481;-75
2021/05/18 00:56:01;;;;;;;9.38;1.80;;;;;;;;;;6813119;29;20058;-75
2021/05/18 00:59:22;;;;;;;7.20;1.60;;;;;;;;;;6797105;29;20124;-75
2021/05/18 01:02:46;;;;;;;6.60;2.10;;;;;;;;;;6813262;29;20062;-75
2021/05/18 01:09:45;;;;;;;10.90;2.53;;;;;;;;;;6812828;29;20039;-75
2021/05/18 01:13:05;;;;;;;9.57;1.55;;;;;;;;;;6812037;29;20122;-75
2021/05/18 01:16:31;;;;;;;5.97;1.60;;;;;;;;;;6812337;29;20116;-75
2021/05/18 01:19:52;;;;;;;7.28;1.70;;;;;;;;;;6796757;29;20036;-75
2021/05/18 01:23:12;;;;;;;4.93;1.60;;;;;;;;;;6819844;29;20062;-75
2021/05/18 01:26:34;;;;;;;2.40;1.20;;;;;;;;;;6787353;29;20127;-75
2021/05/18 01:29:54;;;;;;;12.25;2.33;;;;;;;;;;6812012;29;20532;-75
2021/05/18 01:33:15;;;;;;;7.72;1.73;;;;;;;;;;6822306;29;20039;-75
2021/05/18 01:36:36;;;;;;;7.82;1.48;;;;;;;;;;6798455;29;20120;-75
2021/05/18 01:40:07;;;;;;;7.38;2.10;;;;;;;;;;6812084;29;20035;-75
2021/05/18 01:43:27;;;;;;;6.72;1.52;;;;;;;;;;6810381;29;20032;-75
2021/05/18 01:46:48;;;;;;;2.25;1.33;;;;;;;;;;6797595;29;20493;-75
2021/05/18 01:50:10;;;;;;;3.50;1.65;;;;;;;;;;6814985;29;20059;-75
2021/05/18 01:53:31;;;;;;;4.75;1.63;;;;;;;;;;6810761;29;20031;-75
2021/05/18 01:57:17;;;;;;;8.80;1.35;;;;;;;;;;6823234;29;20170;-74
2021/05/18 02:00:39;;;;;;;5.35;1.75;;;;;;;;;;6808928;29;20027;-75
2021/05/18 02:04:01;;;;;;;4.35;1.83;;;;;;;;;;6794528;29;20042;-75
2021/05/18 02:07:25;;;;;;;5.95;1.52;;;;;;;;;;6804337;29;20059;-75
2021/05/18 02:10:45;;;;;;;3.08;1.30;;;;;;;;;;6786942;29;20118;-75
2021/05/18 02:14:09;;;;;;;5.18;1.33;;;;;;;;;;6803771;29;20036;-75
2021/05/18 02:28:03;;;;;;;;;;;;;;;;;;6792300;29;20438;-75
2021/05/18 02:31:25;;;;;;;2.65;1.17;;;;;;;;;;6791091;29;19933;-75
2021/05/18 02:34:45;;;;;;;3.55;1.38;;;;;;;;;;6793745;28;20467;-74
2021/05/18 02:38:06;;;;;;;2.88;1.30;;;;;;;;;;6798290;29;20048;-75
2021/05/18 02:41:26;;;;;;;2.00;1.38;;;;;;;;;;6789919;29;20032;-75
2021/05/18 02:51:47;;;;;;;3.58;1.35;;;;;;;;;;6776650;29;20040;-75
2021/05/18 02:55:11;;;;;;;2.38;1.38;;;;;;;;;;6783232;29;20035;-75
2021/05/18 02:58:33;;;;;;;3.50;1.27;;;;;;;;;;6783311;29;20080;-75
2021/05/18 03:01:59;;;;;;;4.53;1.70;;;;;;;;;;6764532;29;20638;-75
2021/05/18 03:05:20;;;;;;;5.55;1.40;;;;;;;;;;6803069;29;20413;-75
2021/05/18 03:08:40;;;;;;;3.50;1.40;;;;;;;;;;6785214;29;20510;-75
2021/05/18 03:12:01;;;;;;;2.67;1.23;;;;;;;;;;6795096;29;20035;-75
2021/05/18 03:15:21;;;;;;;4.32;1.20;;;;;;;;;;6804401;29;20020;-75
2021/05/18 03:18:42;;;;;;;1.73;1.20;;;;;;;;;;6788553;29;20031;-75
2021/05/18 03:22:02;;;;;;;2.45;1.10;;;;;;;;;;6794688;29;20115;-75
2021/05/18 03:25:23;;;;;;;2.53;1.10;;;;;;;;;;6795859;29;20043;-75
2021/05/18 03:28:46;;;;;;;1.23;1.08;;;;;;;;;;6785138;29;20046;-75
2021/05/18 03:35:45;;;;;;;2.70;1.20;;;;;;;;;;6807363;29;20035;-75
2021/05/18 03:39:07;;;;;;;1.90;1.00;;;;;;;;;;6790708;29;20076;-75
2021/05/18 03:42:44;;;;;;;3.03;1.10;;;;;;;;;;6800984;29;20039;-76
2021/05/18 04:04:15;;;;;;;1.38;1.10;;;;;;;;;;6804961;29;19914;-75
2021/05/18 04:18:21;;;;;;;1.90;1.13;;;;;;;;;;6802530;29;20036;-75
2021/05/18 04:54:09;;;;;;;1.33;1.05;;;;;;;;;;6801933;29;20490;-75
2021/05/18 05:01:51;;;;;;;1.77;1.20;;;;;;;;;;6804599;29;20383;-76
2021/05/18 05:15:37;;;;;;;2.47;1.05;;;;;;;;;;6786177;29;20036;-75
2021/05/18 05:18:57;;;;;;;1.60;1.15;;;;;;;;;;6784750;29;20104;-75
2021/05/18 05:22:17;;;;;;;0.93;0.88;;;;;;;;;;6798769;29;20031;-75
2021/05/18 05:25:38;;;;;;;1.88;1.08;;;;;;;;;;6806645;29;20067;-75
2021/05/18 05:28:58;;;;;;;2.40;1.10;;;;;;;;;;6810251;29;20031;-76
2021/05/18 05:32:19;;;;;;;6.90;1.23;;;;;;;;;;6821154;29;20549;-75
2021/05/18 05:35:39;;;;;;;2.40;2.20;;;;;;;;;;6805551;29;20123;-76
2021/05/18 05:39:06;;;;;;;3.17;2.10;;;;;;;;;;6820451;29;20059;-76
2021/05/18 05:42:28;;;;;;;2.40;2.20;;;;;;;;;;6826468;29;20040;-76
2021/05/18 05:45:51;;;;;;;6.35;5.95;;;;;;;;;;6811630;29;20462;-75
2021/05/18 05:49:12;;;;;;;6.50;6.10;;;;;;;;;;6806892;29;20036;-75
2021/05/18 05:52:34;;;;;;;5.95;5.55;;;;;;;;;;6784681;29;20024;-75
2021/05/18 05:55:55;;;;;;;1.50;1.30;;;;;;;;;;6798180;29;20036;-75
2021/05/18 05:59:18;;;;;;;2.88;1.40;;;;;;;;;;6794981;29;20041;-75
2021/05/18 06:02:38;;;;;;;1.40;1.30;;;;;;;;;;6798404;29;20036;-75
2021/05/18 06:05:59;;;;;;;2.15;1.30;;;;;;;;;;6801458;29;20036;-75
2021/05/18 06:09:22;;;;;;;1.58;1.10;;;;;;;;;;6804212;29;20494;-75
2021/05/18 06:12:57;;;;;;;5.00;1.40;;;;;;;;;;6807629;29;20466;-76
2021/05/18 06:48:57;;;;;;;1.27;1.17;;;;;;;;;;6801442;29;20036;-78
2021/05/18 06:52:17;;;;;;;1.90;1.30;;;;;;;;;;6803340;29;20028;-78
2021/05/18 06:55:38;;;;;;;1.80;1.30;;;;;;;;;;6808857;29;20071;-79
2021/05/18 07:02:22;;;;;;;2.75;1.10;;;;;;;;;;6801903;29;20102;-79
2021/05/18 07:06:11;;;;;;;2.25;1.30;;;;;;;;;;6803521;29;20035;-78
2021/05/18 07:09:26;;;;;;;1.20;1.13;;;;;;;;;;6797244;29;20040;-79
2021/05/18 07:12:47;;;;;;;1.38;1.27;;;;;;;;;;6802233;29;20123;-78
2021/05/18 07:16:07;;;;;;;1.52;1.20;;;;;;;;;;6808381;29;20059;-77
2021/05/18 07:19:27;;;;;;;1.77;1.30;;;;;;;;;;6803049;29;20103;-77
2021/05/18 07:22:52;;;;;;;13.80;1.20;;;;;;;;;;6803523;29;20028;-79
2021/05/18 07:26:12;;;;;;;2.78;1.50;;;;;;;;;;6800523;29;20032;-79
2021/05/18 07:29:33;;;;;;;7.18;1.63;;;;;;;;;;6795153;29;20131;-79
2021/05/18 07:32:53;;;;;;;7.63;1.92;;;;;;;;;;6821479;29;20039;-79
2021/05/18 07:36:13;;;;;;;3.42;1.60;;;;;;;;;;6810929;29;20142;-79
2021/05/18 07:39:34;;;;;;;4.15;1.17;;;;;;;;;;6791619;29;20059;-79
2021/05/18 07:42:54;;;;;;;5.07;1.65;;;;;;;;;;6794059;29;20481;-79
2021/05/18 07:46:18;;;;;;;3.90;1.30;;;;;;;;;;6792188;29;20035;-79
2021/05/18 07:49:49;;;;;;;5.25;1.48;;;;;;;;;;6793089;29;20111;-78
2021/05/18 08:00:40;;;;;;;4.60;1.80;;;;;;;;;;6795536;29;20048;-78
2021/05/18 08:07:40;;;;;;;3.03;1.45;;;;;;;;;;6787724;29;20490;-80
2021/05/18 08:11:02;;;;;;;1.35;1.25;;;;;;;;;;6794630;29;20042;-80
2021/05/18 08:14:25;;;;;;;4.43;1.52;;;;;;;;;;6808719;29;20036;-80
2021/05/18 08:18:05;;;;;;;3.08;1.23;;;;;;;;;;6790697;29;20046;-80
2021/05/18 10:34:59;;;;;;;2.08;1.30;;;;;;;;;;6772974;29;20036;-79
2021/05/18 10:38:23;;;;;;;2.60;1.10;;;;;;;;;;6800032;29;20378;-77
2021/05/18 10:41:43;;;;;;;1.42;1.08;;;;;;;;;;6795917;29;20031;-78
2021/05/18 10:45:04;;;;;;;2.10;1.17;;;;;;;;;;6803909;29;20486;-79
2021/05/18 10:48:31;;;;;;;1.38;1.10;;;;;;;;;;6791399;29;20043;-78
2021/05/18 10:51:53;;;;;;;1.63;1.10;;;;;;;;;;6793394;29;20095;-79
2021/05/18 10:55:14;;;;;;;2.53;0.85;;;;;;;;;;6797122;29;20032;-78
2021/05/18 10:58:35;;;;;;;2.17;1.23;;;;;;;;;;6799033;29;20706;-79
2021/05/18 11:02:01;;;;;;;1.50;1.15;;;;;;;;;;6794079;29;20035;-79
2021/05/18 11:05:21;;;;;;;1.40;1.08;;;;;;;;;;6808355;29;20107;-79
2021/05/18 11:08:41;;;;;;;1.08;0.90;;;;;;;;;;6803675;29;20360;-78
2021/05/18 11:12:05;;;;;;;1.85;1.10;;;;;;;;;;6787273;29;20031;-79
2021/05/18 11:15:26;;;;;;;6.00;1.20;;;;;;;;;;6792589;29;20480;-80
2021/05/18 11:18:49;;;;;;;1.00;1.00;;;;;;;;;;6795349;29;20036;-79
2021/05/18 11:22:10;;;;;;;1.52;1.10;;;;;;;;;;6787498;29;20474;-79
2021/05/18 11:25:31;;;;;;;3.97;1.40;;;;;;;;;;6806953;29;20115;-79
2021/05/18 11:28:52;;;;;;;2.15;1.02;;;;;;;;;;6794437;29;20028;-79
2021/05/18 11:32:12;;;;;;;2.15;1.13;;;;;;;;;;6811906;29;20502;-80
2021/05/18 11:35:33;;;;;;;3.60;1.13;;;;;;;;;;6795940;29;20040;-80
2021/05/18 11:39:02;;;;;;;2.45;1.23;;;;;;;;;;6789917;29;20055;-80
2021/05/18 11:42:29;;;;;;;2.58;1.10;;;;;;;;;;6819668;29;20397;-79
2021/05/18 11:45:52;;;;;;;1.75;1.20;;;;;;;;;;6800713;29;20075;-80
2021/05/18 11:49:13;;;;;;;1.20;1.10;;;;;;;;;;6829544;29;20050;-79
2021/05/18 11:52:36;;;;;;;1.17;1.08;;;;;;;;;;6790673;29;20031;-79
2021/05/18 11:55:56;;;;;;;2.67;1.10;;;;;;;;;;6824375;29;20035;-79
2021/05/18 11:59:19;;;;;;;1.35;0.90;;;;;;;;;;6796874;29;20047;-79
2021/05/18 12:02:40;;;;;;;2.42;1.25;;;;;;;;;;6810225;29;20035;-82
2021/05/18 12:06:01;;;;;;;1.67;1.10;;;;;;;;;;6813142;29;20028;-82
2021/05/18 12:09:22;;;;;;;2.60;1.20;;;;;;;;;;6810310;29;20031;-81
2021/05/18 12:12:45;;;;;;;2.35;1.40;;;;;;;;;;6816711;29;20094;-81
2021/05/18 12:16:10;;;;;;;3.10;1.17;;;;;;;;;;6816393;29;20038;-83
2021/05/18 12:19:30;;;;;;;2.15;1.20;;;;;;;;;;6800474;29;20039;-84
2021/05/18 12:22:52;;;;;;;2.08;1.02;;;;;;;;;;6816406;29;20717;-84
2021/05/18 12:26:18;;;;;;;5.05;1.00;;;;;;;;;;6811568;29;20040;-83
2021/05/18 12:29:52;;;;;;;1.55;1.13;;;;;;;;;;6831589;23;20455;-84
2021/05/18 12:33:12;;;;;;;6.03;0.98;;;;;;;;;;6857065;28;20114;-84
2021/05/18 12:36:47;;;;;;;2.08;0.88;;;;;;;;;;6821532;29;20036;-84
2021/05/18 12:40:13;;;;;;;3.72;0.85;;;;;;;;;;6833353;29;20031;-85
2021/05/18 12:43:38;;;;;;;1.63;0.93;;;;;;;;;;6822294;29;20020;-84
2021/05/18 12:47:04;;;;;;;6.35;1.10;;;;;;;;;;6803879;29;20405;-85
2021/05/18 12:50:49;;;;;;;1.30;1.00;;;;;;;;;;6811378;29;20035;-81
2021/05/18 12:54:10;;;;;;;1.40;0.85;;;;;;;;;;6832176;28;20396;-83
2021/05/18 12:57:30;;;;;;;3.33;0.90;;;;;;;;;;6825878;28;20465;-81
2021/05/18 13:00:51;;;;;;;2.33;1.23;;;;;;;;;;6825968;29;20108;-82
2021/05/18 13:04:12;;;;;;;1.90;1.00;;;;;;;;;;6831446;29;20043;-82
2021/05/18 13:07:33;;;;;;;4.93;0.85;;;;;;;;;;6839731;28;20054;-82
2021/05/18 13:14:23;;;;;;;2.13;0.95;;;;;;;;;;6838751;29;20035;-82
2021/05/18 13:17:58;;;;;;;0.90;0.90;;;;;;;;;;6829792;28;20431;-83
2021/05/18 13:21:24;;;;;;;1.95;0.82;;;;;;;;;;6831146;29;20054;-83
2021/05/18 13:28:24;;;;;;;;;;;;;;;;;;6830556;28;20063;-85
2021/05/18 13:31:46;;;;;;;3.03;0.80;;;;;;;;;;6819702;28;19974;-81
2021/05/18 13:35:07;;;;;;;1.23;1.00;;;;;;;;;;6830902;28;20031;-83
2021/05/18 13:38:28;;;;;;;4.25;1.15;;;;;;;;;;6834717;29;20384;-82
2021/05/18 13:41:48;;;;;;;1.63;1.05;;;;;;;;;;6810055;28;20537;-82
2021/05/18 13:45:09;;;;;;;1.83;1.27;;;;;;;;;;6823422;28;20032;-89
2021/05/18 13:48:30;;;;;;;1.92;0.73;;;;;;;;;;6811321;28;20027;-89
2021/05/18 13:51:50;;;;;;;1.30;0.75;;;;;;;;;;6830302;28;20023;-89
2021/05/18 13:55:11;;;;;;;8.77;1.10;;;;;;;;;;6800092;29;20078;-86
2021/05/18 13:58:31;;;;;;;1.95;0.80;;;;;;;;;;6803518;28;20039;-85
2021/05/18 14:01:52;;;;;;;1.30;1.00;;;;;;;;;;6810195;29;20111;-85
2021/05/18 14:05:15;;;;;;;1.42;0.82;;;;;;;;;;6834005;28;20034;-85
2021/05/18 14:08:37;;;;;;;2.10;0.98;;;;;;;;;;6830926;28;20030;-85
2021/05/18 14:11:58;;;;;;;1.83;1.05;;;;;;;;;;6835448;28;20101;-84
2021/05/18 14:15:18;;;;;;;1.15;1.10;;;;;;;;;;6828535;28;20130;-83
2021/05/18 14:18:39;;;;;;;4.28;1.17;;;;;;;;;;6820067;29;20031;-84
2021/05/18 14:22:01;;;;;;;3.03;1.05;;;;;;;;;;6822748;28;20031;-83
2021/05/18 14:25:22;;;;;;;3.63;1.00;;;;;;;;;;6822567;29;20507;-84
2021/05/18 14:28:42;;;;;;;3.13;1.20;;;;;;;;;;6822659;28;20035;-84
2021/05/18 14:32:03;;;;;;;3.65;1.00;;;;;;;;;;6814291;29;20075;-86
2021/05/18 14:35:24;;;;;;;4.40;1.13;;;;;;;;;;6822581;28;20042;-84
2021/05/18 14:38:46;;;;;;;6.50;1.20;;;;;;;;;;6803838;29;20091;-84
2021/05/18 14:45:46;;;;;;;6.18;1.40;;;;;;;;;;6822730;28;20027;-85
2021/05/18 14:56:06;;;;;;;3.40;1.10;;;;;;;;;;6823209;29;20035;-87
2021/05/18 14:59:27;;;;;;;3.35;1.40;;;;;;;;;;6818618;29;20082;-86
2021/05/18 15:02:48;;;;;;;7.05;1.45;;;;;;;;;;6820609;29;20453;-83
2021/05/18 15:06:08;;;;;;;6.22;1.00;;;;;;;;;;6829934;29;20503;-81
2021/05/18 15:09:29;;;;;;;1.85;1.10;;;;;;;;;;6827870;28;20090;-85
2021/05/18 15:12:49;;;;;;;1.70;1.13;;;;;;;;;;6837818;28;20078;-83
2021/05/18 15:16:09;;;;;;;1.70;1.00;;;;;;;;;;6832514;28;20063;-83
2021/05/18 15:19:30;;;;;;;2.30;1.05;;;;;;;;;;6821340;28;20433;-80
2021/05/18 15:22:51;;;;;;;3.60;1.05;;;;;;;;;;6834520;28;20126;-79
2021/05/18 15:26:12;;;;;;;4.22;1.58;;;;;;;;;;6837562;28;20046;-80
2021/05/18 15:29:32;;;;;;;5.13;1.50;;;;;;;;;;6818248;29;20043;-84
2021/05/18 15:32:53;;;;;;;5.10;0.93;;;;;;;;;;6818002;28;20094;-78
2021/05/18 15:36:15;;;;;;;2.22;1.10;;;;;;;;;;6837757;28;20442;-81
2021/05/18 15:39:36;;;;;;;15.50;1.25;;;;;;;;;;6832103;28;20489;-77
2021/05/18 15:42:56;;;;;;;6.25;1.23;;;;;;;;;;6806727;29;20123;-78
2021/05/18 15:46:17;;;;;;;16.30;1.35;;;;;;;;;;6815206;29;20071;-81
2021/05/18 15:49:37;;;;;;;5.00;1.17;;;;;;;;;;6812606;29;20042;-86
2021/05/18 15:52:58;;;;;;;7.63;1.83;;;;;;;;;;6821062;28;20035;-87
2021/05/18 15:56:19;;;;;;;7.25;1.40;;;;;;;;;;6813845;28;20042;-82
2021/05/18 15:59:39;;;;;;;8.13;1.50;;;;;;;;;;6824385;28;20110;-85
2021/05/18 16:03:00;;;;;;;8.07;1.25;;;;;;;;;;6841493;28;20050;-84
2021/05/18 16:06:21;;;;;;;5.00;1.00;;;;;;;;;;6818336;29;20111;-82
2021/05/18 16:09:42;;;;;;;8.20;1.50;;;;;;;;;;6829009;29;20078;-83
2021/05/18 16:13:02;;;;;;;6.75;1.60;;;;;;;;;;6831918;28;20080;-82
2021/05/18 16:16:23;;;;;;;8.52;1.40;;;;;;;;;;6824978;28;20111;-81
2021/05/18 16:19:43;;;;;;;3.53;1.50;;;;;;;;;;6821642;28;20152;-84
2021/05/18 16:23:05;;;;;;;4.05;1.30;;;;;;;;;;6832678;29;20127;-81
2021/05/18 16:26:33;;;;;;;7.75;1.80;;;;;;;;;;6828873;28;20440;-84
2021/05/18 16:29:53;;;;;;;8.95;1.52;;;;;;;;;;6819009;28;20050;-83
2021/05/18 16:33:14;;;;;;;3.95;1.27;;;;;;;;;;6821131;28;20114;-81
2021/05/18 16:36:35;;;;;;;3.97;1.40;;;;;;;;;;6842808;28;20081;-85
2021/05/18 16:39:56;;;;;;;2.60;1.20;;;;;;;;;;6817982;28;20047;-81
2021/05/18 16:43:17;;;;;;;4.80;1.30;;;;;;;;;;6827653;28;20031;-85
2021/05/18 16:46:38;;;;;;;8.20;1.30;;;;;;;;;;6800157;29;20037;-81
2021/05/18 16:49:59;;;;;;;8.63;1.23;;;;;;;;;;6825087;28;20030;-84
2021/05/18 16:53:20;;;;;;;5.90;1.40;;;;;;;;;;6825839;28;20114;-82
2021/05/18 16:56:41;;;;;;;7.63;1.10;;;;;;;;;;6840553;28;20041;-83
2021/05/18 17:00:03;;;;;;;6.88;0.90;;;;;;;;;;6848504;28;20070;-81
2021/05/18 17:03:24;;;;;;;6.45;1.23;;;;;;;;;;6849580;28;20437;-82
2021/05/18 17:06:45;;;;;;;3.95;1.38;;;;;;;;;;6830288;28;20486;-82
2021/05/18 17:10:06;;;;;;;3.40;1.30;;;;;;;;;;6818082;28;20122;-81
2021/05/18 17:13:26;;;;;;;7.35;1.45;;;;;;;;;;6837758;28;20639;-84
2021/05/18 17:16:47;;;;;;;5.15;1.45;;;;;;;;;;6841471;29;20037;-84
2021/05/18 17:20:08;;;;;;;8.45;1.33;;;;;;;;;;6840479;28;20054;-83
2021/05/18 17:23:28;;;;;;;3.00;1.00;;;;;;;;;;6800663;29;20031;-82
2021/05/18 17:26:49;;;;;;;4.43;1.00;;;;;;;;;;6818029;29;20502;-83
2021/05/18 17:30:16;;;;;;;4.60;1.25;;;;;;;;;;6839334;28;20441;-83
2021/05/18 17:33:36;;;;;;;2.95;1.33;;;;;;;;;;6823315;28;20398;-82
2021/05/18 17:36:57;;;;;;;7.18;1.80;;;;;;;;;;6831357;29;20485;-83
2021/05/18 17:40:19;;;;;;;5.40;1.23;;;;;;;;;;6831569;28;20097;-80
2021/05/18 17:43:39;;;;;;;4.13;1.52;;;;;;;;;;6841862;28;20035;-81
2021/05/18 17:47:00;;;;;;;4.93;0.88;;;;;;;;;;6836568;28;20079;-81
2021/05/18 17:50:20;;;;;;;5.05;1.10;;;;;;;;;;6826844;29;20366;-80
2021/05/18 17:53:41;;;;;;;1.83;1.13;;;;;;;;;;6828427;28;20063;-80
2021/05/18 17:57:02;;;;;;;4.78;1.15;;;;;;;;;;6825650;28;20039;-82
2021/05/18 18:00:23;;;;;;;3.22;1.10;;;;;;;;;;6804886;29;20071;-81
2021/05/18 18:03:43;;;;;;;6.97;1.65;;;;;;;;;;6823818;28;20034;-81
2021/05/18 18:07:06;;;;;;;5.22;1.05;;;;;;;;;;6839677;28;20035;-81
2021/05/18 18:10:29;;;;;;;1.50;1.00;;;;;;;;;;6829376;28;20066;-80
2021/05/18 18:13:50;;;;;;;5.25;1.30;;;;;;;;;;6829732;28;20035;-81
2021/05/18 18:17:13;;;;;;;9.60;2.67;;;;;;;;;;6806076;29;20556;-80
2021/05/18 18:20:34;;;;;;;3.40;1.20;;;;;;;;;;6827409;29;20042;-81
2021/05/18 18:23:54;;;;;;;9.57;1.10;;;;;;;;;;6824993;29;20114;-80
2021/05/18 18:27:18;;;;;;;3.17;1.30;;;;;;;;;;6830994;28;20031;-80
2021/05/18 18:30:38;;;;;;;2.92;1.00;;;;;;;;;;6815458;28;20043;-81
2021/05/18 18:33:58;;;;;;;5.97;1.60;;;;;;;;;;6828171;28;20166;-81
2021/05/18 18:37:19;;;;;;;10.00;1.83;;;;;;;;;;6821840;28;20114;-81
2021/05/18 18:40:40;;;;;;;3.15;1.33;;;;;;;;;;6801521;29;20565;-81
2021/05/18 18:44:00;;;;;;;5.13;1.50;;;;;;;;;;6808610;28;20461;-81
2021/05/18 18:47:21;;;;;;;2.55;1.42;;;;;;;;;;6809017;28;20031;-81
2021/05/18 18:50:44;;;;;;;5.88;1.63;;;;;;;;;;6809244;29;20054;-81
2021/05/18 18:54:05;;;;;;;4.78;1.63;;;;;;;;;;6817660;29;20031;-81
2021/05/18 18:57:27;;;;;;;3.63;1.23;;;;;;;;;;6827462;28;20030;-81
2021/05/18 19:00:48;;;;;;;4.38;1.38;;;;;;;;;;6803244;29;20031;-81
2021/05/18 19:04:24;;;;;;;3.50;1.40;;;;;;;;;;6841455;28;20118;-81
2021/05/18 19:07:50;;;;;;;5.75;1.35;;;;;;;;;;6819834;28;20059;-80
2021/05/18 19:14:48;;;;;;;3.25;1.30;;;;;;;;;;6818748;28;20031;-81
2021/05/18 19:18:09;;;;;;;4.68;1.50;;;;;;;;;;6825080;28;20163;-81
2021/05/18 19:21:29;;;;;;;1.70;1.00;;;;;;;;;;6808887;29;20027;-81
2021/05/18 19:24:50;;;;;;;4.45;1.23;;;;;;;;;;6839597;28;20031;-81
2021/05/18 19:28:13;;;;;;;3.40;1.20;;;;;;;;;;6819631;28;20118;-81
2021/05/18 19:31:33;;;;;;;4.43;1.50;;;;;;;;;;6834385;28;20117;-80
2021/05/18 19:34:55;;;;;;;3.15;1.33;;;;;;;;;;6822589;28;20385;-81
2021/05/18 19:45:37;;;;;;;2.25;1.30;;;;;;;;;;6834598;28;20057;-81
2021/05/18 19:49:10;;;;;;;3.33;1.25;;;;;;;;;;6822813;28;20031;-81
2021/05/18 19:52:31;;;;;;;2.65;1.38;;;;;;;;;;6844334;28;20031;-81
2021/05/18 19:55:58;;;;;;;5.13;1.90;;;;;;;;;;6821035;28;20031;-81
2021/05/18 20:21:17;;;;;;;;;;;;;;;;;;6828817;28;20074;-81
2021/05/18 20:24:36;;;;;;;4.05;1.55;;;;;;;;;;6829998;28;19918;-78
2021/05/18 20:27:56;;;;;;;4.95;1.45;;;;;;;;;;6837994;28;20066;-78
2021/05/18 20:31:17;;;;;;;3.20;1.10;;;;;;;;;;6824135;28;20110;-78
2021/05/18 20:41:43;;;;;;;3.30;1.52;;;;;;;;;;6839021;28;20043;-79
2021/05/18 20:45:05;;;;;;;3.60;1.23;;;;;;;;;;6823731;29;20031;-78
2021/05/18 20:48:26;;;;;;;4.22;1.30;;;;;;;;;;6822833;28;20035;-78
2021/05/18 20:51:48;;;;;;;6.88;1.20;;;;;;;;;;6829511;28;20373;-79
2021/05/18 20:55:11;;;;;;;2.20;1.48;;;;;;;;;;6822579;29;20027;-79
2021/05/18 20:58:32;;;;;;;7.15;1.52;;;;;;;;;;6809254;29;20083;-79
2021/05/18 21:01:53;;;;;;;2.88;1.23;;;;;;;;;;6820892;29;20381;-79
2021/05/18 21:05:14;;;;;;;2.97;1.25;;;;;;;;;;6817221;29;20024;-78
2021/05/18 21:08:52;;;;;;;4.13;1.45;;;;;;;;;;6817473;29;20469;-78
2021/05/18 21:12:20;;;;;;;3.33;1.33;;;;;;;;;;6816684;29;20115;-79
2021/05/18 21:15:51;;;;;;;1.90;1.25;;;;;;;;;;6819338;28;20090;-79
2021/05/18 21:19:12;;;;;;;3.72;1.55;;;;;;;;;;6816514;28;20035;-80
2021/05/18 21:22:33;;;;;;;3.03;1.40;;;;;;;;;;6822676;28;20066;-79
2021/05/18 21:25:53;;;;;;;3.13;1.38;;;;;;;;;;6852645;28;20031;-79
2021/05/18 21:29:16;;;;;;;6.55;1.67;;;;;;;;;;6833783;28;20032;-78
2021/05/18 21:32:39;;;;;;;2.40;1.63;;;;;;;;;;6830778;28;20055;-79
2021/05/18 21:35:59;;;;;;;1.00;1.00;;;;;;;;;;6819321;29;20111;-83
2021/05/18 21:39:36;;;;;;;6.70;1.90;;;;;;;;;;6829784;28;20027;-83
2021/05/18 21:43:01;;;;;;;4.90;1.50;;;;;;;;;;6811071;29;20031;-83
2021/05/18 21:46:22;;;;;;;5.00;1.83;;;;;;;;;;6830622;28;20417;-80
2021/05/18 21:49:44;;;;;;;12.23;1.90;;;;;;;;;;6816276;29;20569;-85
2021/05/18 21:53:04;;;;;;;13.18;1.60;;;;;;;;;;6830398;28;20031;-83
2021/05/18 21:56:25;;;;;;;6.25;1.42;;;;;;;;;;6830712;28;20028;-85
2021/05/18 21:59:45;;;;;;;5.53;1.25;;;;;;;;;;6817803;29;20123;-86
2021/05/18 22:03:07;;;;;;;8.18;1.42;;;;;;;;;;6816548;29;20066;-86
2021/05/18 22:06:28;;;;;;;8.15;2.13;;;;;;;;;;6811121;29;20512;-84
2021/05/18 22:09:56;;;;;;;11.27;2.63;;;;;;;;;;6831341;28;20527;-83
2021/05/18 22:13:22;;;;;;;22.70;2.55;;;;;;;;;;6814214;29;20043;-83
2021/05/18 22:27:39;;;;;;;10.68;2.35;;;;;;;;;;6825684;28;20497;-81
2021/05/18 22:31:00;;;;;;;19.63;2.92;;;;;;;;;;6812673;29;20156;-81
2021/05/18 22:34:21;;;;;;;12.63;2.50;;;;;;;;;;6834543;28;20035;-83
2021/05/18 22:37:41;;;;;;;16.00;2.60;;;;;;;;;;6817456;29;20067;-82
2021/05/18 22:41:02;;;;;;;9.73;2.67;;;;;;;;;;6782893;29;20054;-83
2021/05/18 22:44:23;;;;;;;8.20;2.20;;;;;;;;;;6816790;29;20111;-82
2021/05/18 22:47:43;;;;;;;10.35;1.90;;;;;;;;;;6805589;29;20389;-82
2021/05/18 22:51:04;;;;;;;18.98;2.88;;;;;;;;;;6811935;29;20030;-82
2021/05/18 22:54:25;;;;;;;12.02;2.67;;;;;;;;;;6834904;28;20035;-83
2021/05/18 22:57:48;;;;;;;49.25;3.40;;;;;;;;;;6816861;28;20069;-84
2021/05/18 23:01:09;;;;;;;9.50;2.40;;;;;;;;;;6816867;28;20070;-84
2021/05/18 23:04:29;;;;;;;10.77;2.28;;;;;;;;;;6812178;28;20039;-84
2021/05/18 23:07:50;;;;;;;6.43;2.10;;;;;;;;;;6822504;28;20019;-84
2021/05/18 23:11:10;;;;;;;9.80;2.13;;;;;;;;;;6839071;28;20128;-84
2021/05/18 23:14:35;;;;;;;11.63;2.15;;;;;;;;;;6835776;28;20027;-84
2021/05/18 23:17:56;;;;;;;11.13;2.50;;;;;;;;;;6836248;28;20445;-83
2021/05/18 23:21:16;;;;;;;11.15;2.35;;;;;;;;;;6822706;29;20110;-84
2021/05/18 23:24:37;;;;;;;7.90;1.85;;;;;;;;;;6824025;28;20423;-84
2021/05/18 23:27:58;;;;;;;9.32;2.53;;;;;;;;;;6863084;28;20054;-83
2021/05/18 23:31:18;;;;;;;9.25;1.88;;;;;;;;;;6849651;28;20096;-83
2021/05/18 23:34:39;;;;;;;7.70;1.80;;;;;;;;;;6836072;28;20075;-84
2021/05/18 23:37:59;;;;;;;5.75;1.80;;;;;;;;;;6814910;28;20035;-84
2021/05/18 23:41:20;;;;;;;13.60;2.35;;;;;;;;;;6830504;28;20459;-82
2021/05/18 23:44:40;;;;;;;8.82;1.80;;;;;;;;;;6822535;28;20039;-83
2021/05/18 23:48:00;;;;;;;7.43;1.90;;;;;;;;;;6823487;28;20035;-83
2021/05/18 23:51:21;;;;;;;8.10;1.98;;;;;;;;;;6823096;29;20065;-83
2021/05/18 23:54:41;;;;;;;10.13;1.70;;;;;;;;;;6836412;28;20063;-83
2021/05/18 23:58:02;;;;;;;5.53;1.50;;;;;;;;;;6830238;28;20043;-84
